Grant Town, West Virginia
Current Conditions -  °F | °C
As of 6:53 PM on Friday 21 Nov 2014 (Local Time) from KMGW Reporting Station
Clear Clear  
Wind Chill: 26°   Ceiling: Unl
Heat Index: 26°   Visibility: 10mi
Dew Point:   Wind: 0mph
Humidity: 44%   Direction: NA
Pressure: 30.48"   Gusts: NA
Location:  39.56°N, 80.18°W
Report Text: KMGW 212353Z 00000KT 10SM CLR M03/M14 A3048 RMK AO2 SLP339 T10331139 11006 21033 50003
Loading
Personal Weather Stations






























Interactive Weather Map New forecast layout! Learn more

10-Day Weather Forecast

Advertisements
Track Severe Weather on mobile